createdAt,value
2023-05-17T00:00:14.726Z,6
2023-05-17T00:01:15.072Z,6
2023-05-17T00:02:15.179Z,5
2023-05-17T00:03:15.974Z,5
2023-05-17T00:04:16.001Z,5
2023-05-17T00:05:14.569Z,5
2023-05-17T00:06:15.398Z,5
2023-05-17T00:07:15.206Z,7
2023-05-17T00:08:14.882Z,7
2023-05-17T00:11:15.006Z,7
2023-05-17T00:12:13.917Z,6
2023-05-17T00:13:14.743Z,6
2023-05-17T00:14:14.635Z,6
2023-05-17T00:15:13.762Z,6
2023-05-17T00:16:14.743Z,6
2023-05-17T00:17:15.714Z,8
2023-05-17T00:18:15.999Z,8
2023-05-17T00:19:15.498Z,8
2023-05-17T00:22:14.549Z,11
2023-05-17T00:23:15.097Z,11
2023-05-17T00:24:15.148Z,11
2023-05-17T00:25:15.794Z,11
2023-05-17T00:26:15.605Z,11
2023-05-17T00:27:15.534Z,9
2023-05-17T00:28:15.563Z,9
2023-05-17T00:29:14.592Z,9
2023-05-17T00:30:15.109Z,9
2023-05-17T00:31:14.606Z,9
2023-05-17T00:32:14.927Z,13
2023-05-17T00:33:15.442Z,13
2023-05-17T00:34:15.856Z,13
2023-05-17T00:37:14.726Z,5
2023-05-17T00:38:14.364Z,5
2023-05-17T00:39:14.817Z,5
2023-05-17T00:40:15.363Z,5
2023-05-17T00:41:14.044Z,5
2023-05-17T00:42:15.059Z,11
2023-05-17T00:43:15.156Z,11
2023-05-17T00:44:15.055Z,11
2023-05-17T00:45:15.466Z,11
2023-05-17T00:49:15.049Z,7
2023-05-17T00:50:14.979Z,7
2023-05-17T00:51:15.059Z,7
2023-05-17T00:52:15.190Z,8
2023-05-17T00:53:14.787Z,8
2023-05-17T00:54:14.905Z,8
2023-05-17T00:55:15.782Z,8
2023-05-17T00:56:14.875Z,8
2023-05-17T00:57:15.681Z,11
2023-05-17T00:58:14.834Z,11
2023-05-17T00:59:15.008Z,11
2023-05-17T01:00:15.290Z,11
2023-05-17T01:01:14.823Z,11
2023-05-17T01:02:15.272Z,6
2023-05-17T01:03:16.268Z,6
2023-05-17T01:04:17.105Z,6
2023-05-17T01:05:14.889Z,6
2023-05-17T01:06:15.336Z,6
2023-05-17T01:07:14.590Z,9
2023-05-17T01:10:14.810Z,9
2023-05-17T01:11:15.578Z,9
2023-05-17T01:12:15.526Z,11
2023-05-17T01:13:14.436Z,11
2023-05-17T01:14:15.611Z,11
2023-05-17T01:15:15.838Z,11
2023-05-17T01:16:15.363Z,11
2023-05-17T01:17:15.385Z,7
2023-05-17T01:18:16.068Z,7
2023-05-17T01:21:15.345Z,7
2023-05-17T01:22:15.190Z,9
2023-05-17T01:23:15.228Z,9
2023-05-17T01:24:15.716Z,9
2023-05-17T01:25:15.153Z,9
2023-05-17T01:26:15.558Z,9
2023-05-17T01:27:14.627Z,4
2023-05-17T01:28:15.033Z,4
2023-05-17T01:29:14.994Z,4
2023-05-17T01:30:15.105Z,4
2023-05-17T01:31:14.643Z,4
2023-05-17T01:32:15.162Z,6
2023-05-17T01:33:15.999Z,6
2023-05-17T01:34:16.131Z,6
2023-05-17T01:37:14.010Z,6
2023-05-17T01:38:15.146Z,6
2023-05-17T01:39:14.958Z,6
2023-05-17T01:40:15.138Z,6
2023-05-17T01:41:15.147Z,6
2023-05-17T01:42:15.042Z,8
2023-05-17T01:43:14.942Z,8
2023-05-17T01:44:14.969Z,8
2023-05-17T01:45:14.985Z,8
2023-05-17T01:46:14.870Z,8
2023-05-17T01:47:14.797Z,3
2023-05-17T01:48:15.314Z,3
2023-05-17T01:49:15.068Z,3
2023-05-17T01:54:15.212Z,8
2023-05-17T01:55:14.727Z,8
2023-05-17T01:56:17.850Z,8
2023-05-17T01:57:15.527Z,3
2023-05-17T01:58:14.856Z,3
2023-05-17T01:59:15.183Z,3
2023-05-17T02:00:15.511Z,3
2023-05-17T02:01:15.003Z,3
2023-05-17T02:02:15.664Z,9
2023-05-17T02:05:15.729Z,9
2023-05-17T02:06:14.687Z,9
2023-05-17T02:07:14.956Z,11
2023-05-17T02:08:15.317Z,11
2023-05-17T02:09:14.548Z,11
2023-05-17T02:10:15.480Z,11
2023-05-17T02:11:15.241Z,11
2023-05-17T02:12:15.491Z,9
2023-05-17T02:14:15.302Z,9
2023-05-17T02:15:15.371Z,9
2023-05-17T02:16:14.869Z,9
2023-05-17T02:17:15.232Z,9
2023-05-17T02:18:16.119Z,9
2023-05-17T02:19:15.402Z,9
2023-05-17T02:20:15.464Z,9
2023-05-17T02:25:15.015Z,6
2023-05-17T02:26:14.912Z,6
2023-05-17T02:27:15.474Z,6
2023-05-17T02:28:14.905Z,6
2023-05-17T02:29:14.917Z,6
2023-05-17T02:30:17.957Z,6
2023-05-17T02:31:14.885Z,6
2023-05-17T02:32:14.996Z,11
2023-05-17T02:33:16.030Z,11
2023-05-17T02:35:14.750Z,11
2023-05-17T02:36:15.113Z,11
2023-05-17T02:37:15.558Z,8
2023-05-17T02:39:14.287Z,8
2023-05-17T02:40:14.914Z,8
2023-05-17T02:41:14.788Z,8
2023-05-17T02:42:14.646Z,7
2023-05-17T02:43:15.585Z,7
2023-05-17T02:44:15.039Z,7
2023-05-17T02:45:15.130Z,7
2023-05-17T02:46:14.707Z,7
2023-05-17T02:47:15.666Z,5
2023-05-17T02:48:14.952Z,5
2023-05-17T02:49:15.487Z,5
2023-05-17T02:50:15.633Z,5
2023-05-17T02:51:14.708Z,5
2023-05-17T02:52:15.124Z,4
2023-05-17T02:53:15.643Z,4
2023-05-17T02:55:15.387Z,4
2023-05-17T02:56:15.303Z,4
2023-05-17T02:57:15.203Z,4
2023-05-17T03:01:14.802Z,4
2023-05-17T03:02:15.079Z,8
2023-05-17T03:03:16.335Z,8
2023-05-17T03:04:15.506Z,8
2023-05-17T03:05:14.513Z,8
2023-05-17T03:06:14.670Z,8
2023-05-17T03:08:16.303Z,7
2023-05-17T03:09:15.307Z,7
2023-05-17T03:10:15.050Z,7
2023-05-17T03:12:15.073Z,7
2023-05-17T03:13:15.199Z,7
2023-05-17T03:14:14.897Z,7
2023-05-17T03:15:15.066Z,7
2023-05-17T03:16:15.131Z,7
2023-05-17T03:17:15.051Z,5
2023-05-17T03:18:15.723Z,5
2023-05-17T03:19:16.266Z,5
2023-05-17T03:20:15.113Z,5
2023-05-17T03:21:14.576Z,5
2023-05-17T03:22:14.940Z,4
2023-05-17T03:23:15.031Z,4
2023-05-17T03:24:14.769Z,4
2023-05-17T03:25:14.591Z,4
2023-05-17T03:26:15.567Z,4
2023-05-17T03:27:15.178Z,1
2023-05-17T03:31:15.055Z,1
2023-05-17T03:32:13.805Z,4
2023-05-17T03:33:15.311Z,4
2023-05-17T03:34:14.742Z,4
2023-05-17T03:35:13.922Z,4
2023-05-17T03:36:14.685Z,4
2023-05-17T03:37:14.932Z,1
2023-05-17T03:38:13.750Z,1
2023-05-17T03:39:14.509Z,1
2023-05-17T03:40:15.546Z,1
2023-05-17T03:41:15.679Z,1
2023-05-17T03:42:15.352Z,4
2023-05-17T03:43:15.567Z,4
2023-05-17T03:45:14.642Z,4
2023-05-17T03:46:15.381Z,4
2023-05-17T03:47:15.331Z,3
2023-05-17T03:48:15.564Z,3
2023-05-17T03:49:15.850Z,3
2023-05-17T03:50:15.368Z,3
2023-05-17T03:51:14.586Z,3
2023-05-17T03:52:15.332Z,3
2023-05-17T03:54:15.076Z,3
2023-05-17T03:55:15.690Z,3
2023-05-17T03:56:14.753Z,3
2023-05-17T03:57:15.182Z,5
2023-05-17T03:58:15.398Z,5
2023-05-17T03:59:15.675Z,5
2023-05-17T04:00:14.970Z,5
2023-05-17T04:01:15.548Z,5
2023-05-17T04:02:14.763Z,4
2023-05-17T04:03:15.858Z,4
2023-05-17T04:06:14.971Z,4
2023-05-17T04:07:14.059Z,6
2023-05-17T04:08:15.495Z,6
2023-05-17T04:09:14.696Z,6
2023-05-17T04:13:14.115Z,1
2023-05-17T04:14:14.870Z,1
2023-05-17T04:15:14.972Z,1
2023-05-17T04:16:14.549Z,1
2023-05-17T04:17:16.297Z,6
2023-05-17T04:18:14.989Z,6
2023-05-17T04:19:15.711Z,6
2023-05-17T04:20:14.779Z,6
2023-05-17T04:21:14.834Z,6
2023-05-17T04:22:14.647Z,4
2023-05-17T04:23:15.133Z,4
2023-05-17T04:24:15.528Z,4
2023-05-17T04:25:15.897Z,4
2023-05-17T04:26:14.854Z,4
2023-05-17T04:27:16.449Z,5
2023-05-17T04:28:15.489Z,5
2023-05-17T04:29:15.561Z,5
2023-05-17T04:30:15.004Z,5
2023-05-17T04:31:15.150Z,5
2023-05-17T04:32:15.393Z,5
2023-05-17T04:34:15.144Z,5
2023-05-17T04:35:15.338Z,5
2023-05-17T04:38:15.186Z,3
2023-05-17T04:39:14.586Z,3
2023-05-17T04:40:15.517Z,3
2023-05-17T04:44:15.211Z,1
2023-05-17T04:45:16.936Z,1
2023-05-17T04:47:14.747Z,4
2023-05-17T04:48:15.537Z,4
2023-05-17T04:49:15.343Z,4
2023-05-17T04:52:17.030Z,8
2023-05-17T04:53:15.200Z,8
2023-05-17T04:54:15.499Z,8
2023-05-17T04:55:14.785Z,8
2023-05-17T04:56:15.059Z,8
2023-05-17T04:57:15.155Z,6
2023-05-17T04:58:15.279Z,6
2023-05-17T04:59:15.565Z,6
2023-05-17T05:00:14.941Z,6
2023-05-17T05:01:15.442Z,6
2023-05-17T05:02:14.525Z,4
2023-05-17T05:03:15.870Z,4
2023-05-17T05:04:16.665Z,4
2023-05-17T05:06:15.427Z,4
2023-05-17T05:07:15.586Z,7
2023-05-17T05:08:14.961Z,7
2023-05-17T05:09:13.745Z,7
2023-05-17T05:10:15.227Z,7
2023-05-17T05:11:14.678Z,7
2023-05-17T05:12:13.673Z,5
2023-05-17T05:13:14.628Z,5
2023-05-17T05:14:14.720Z,5
2023-05-17T05:15:13.769Z,5
2023-05-17T05:16:14.502Z,5
2023-05-17T05:17:14.647Z,3
2023-05-17T05:18:16.079Z,3
2023-05-17T05:19:16.623Z,3
2023-05-17T05:20:16.605Z,3
2023-05-17T05:21:14.720Z,3
2023-05-17T05:22:15.017Z,4
2023-05-17T05:23:15.551Z,4
2023-05-17T05:24:15.119Z,4
2023-05-17T05:25:15.376Z,4
2023-05-17T05:26:14.520Z,4
2023-05-17T05:28:15.196Z,1
2023-05-17T05:29:15.302Z,1
2023-05-17T05:30:15.562Z,1
2023-05-17T05:31:15.297Z,1
2023-05-17T05:32:15.509Z,6
2023-05-17T05:33:16.549Z,6
2023-05-17T05:35:15.450Z,6
2023-05-17T05:36:15.496Z,6
2023-05-17T05:37:17.223Z,3
2023-05-17T05:38:14.357Z,3
2023-05-17T05:40:15.104Z,3
2023-05-17T05:41:14.144Z,3
2023-05-17T05:42:15.249Z,1
2023-05-17T05:43:16.057Z,1
2023-05-17T05:46:15.069Z,1
2023-05-17T05:47:15.186Z,3
2023-05-17T05:48:15.496Z,3
2023-05-17T05:49:14.730Z,3
2023-05-17T05:50:15.094Z,3
2023-05-17T05:51:14.899Z,3
2023-05-17T05:52:14.547Z,3
2023-05-17T05:56:14.954Z,3
2023-05-17T05:57:14.866Z,4
2023-05-17T05:58:14.983Z,4
2023-05-17T05:59:15.259Z,4
2023-05-17T06:00:14.901Z,4
2023-05-17T06:02:15.265Z,4
2023-05-17T06:03:15.982Z,4
2023-05-17T06:04:14.732Z,4
2023-05-17T06:05:14.201Z,4
2023-05-17T06:06:15.677Z,4
2023-05-17T06:07:14.902Z,3
2023-05-17T06:10:14.569Z,3
2023-05-17T06:11:13.737Z,3
2023-05-17T06:12:14.587Z,3
2023-05-17T06:13:16.696Z,3
2023-05-17T06:14:15.612Z,3
2023-05-17T06:15:14.715Z,3
2023-05-17T06:16:15.396Z,3
2023-05-17T06:17:15.291Z,1
2023-05-17T06:18:16.410Z,1
2023-05-17T06:19:16.173Z,1
2023-05-17T06:21:15.497Z,1
2023-05-17T06:22:15.617Z,3
2023-05-17T06:23:15.143Z,3
2023-05-17T06:25:15.280Z,3
2023-05-17T06:26:15.373Z,3
2023-05-17T06:27:15.423Z,6
2023-05-17T06:28:14.606Z,6
2023-05-17T06:29:15.014Z,6
2023-05-17T06:31:15.676Z,6
2023-05-17T06:32:15.151Z,3
2023-05-17T06:33:17.140Z,3
2023-05-17T06:34:14.605Z,3
2023-05-17T06:35:15.514Z,3
2023-05-17T06:36:16.433Z,3
2023-05-17T06:37:14.416Z,1
2023-05-17T06:38:15.226Z,1
2023-05-17T06:39:15.100Z,1
2023-05-17T06:44:14.720Z,5
2023-05-17T06:45:15.411Z,5
2023-05-17T06:46:14.923Z,5
2023-05-17T06:47:15.146Z,3
2023-05-17T06:48:15.532Z,3
2023-05-17T06:50:15.134Z,3
2023-05-17T06:51:16.687Z,3
2023-05-17T06:52:14.491Z,4
2023-05-17T06:53:14.647Z,4
2023-05-17T06:54:14.749Z,4
2023-05-17T06:55:15.287Z,4
2023-05-17T06:56:16.619Z,4
2023-05-17T06:57:14.942Z,9
2023-05-17T06:58:15.149Z,9
2023-05-17T06:59:15.310Z,9
2023-05-17T07:00:14.752Z,9
2023-05-17T07:02:15.164Z,3
2023-05-17T07:03:15.280Z,3
2023-05-17T07:04:14.563Z,3
2023-05-17T07:05:14.925Z,3
2023-05-17T07:09:15.428Z,5
2023-05-17T07:10:15.429Z,5
2023-05-17T07:11:14.701Z,5
2023-05-17T07:12:15.529Z,4
2023-05-17T07:14:15.272Z,4
2023-05-17T07:15:16.621Z,4
2023-05-17T07:16:15.601Z,4
2023-05-17T07:20:15.885Z,4
2023-05-17T07:21:14.974Z,4
2023-05-17T07:22:15.167Z,1
2023-05-17T07:23:15.604Z,1
2023-05-17T07:24:14.908Z,1
2023-05-17T07:25:15.175Z,1
2023-05-17T07:26:15.476Z,1
2023-05-17T07:27:14.639Z,3
2023-05-17T07:28:15.147Z,3
2023-05-17T07:29:16.045Z,3
2023-05-17T07:30:14.449Z,3
2023-05-17T07:31:14.808Z,3
2023-05-17T07:32:15.025Z,3
2023-05-17T07:33:14.506Z,3
2023-05-17T07:34:15.833Z,3
2023-05-17T07:35:15.131Z,3
2023-05-17T07:36:14.457Z,3
2023-05-17T07:37:14.965Z,4
2023-05-17T07:38:15.123Z,4
2023-05-17T07:39:15.077Z,4
2023-05-17T07:41:14.882Z,4
2023-05-17T07:42:16.568Z,4
2023-05-17T07:43:15.101Z,4
2023-05-17T07:44:14.542Z,4
2023-05-17T07:45:15.367Z,4
2023-05-17T07:46:14.983Z,4
2023-05-17T07:47:15.361Z,4
2023-05-17T07:48:15.824Z,4
2023-05-17T07:49:15.869Z,4
2023-05-17T07:50:15.368Z,4
2023-05-17T07:51:14.794Z,4
2023-05-17T07:52:15.451Z,3
2023-05-17T07:53:15.831Z,3
2023-05-17T07:54:15.717Z,3
2023-05-17T07:55:17.225Z,3
2023-05-17T07:57:13.867Z,3
2023-05-17T07:58:15.000Z,3
2023-05-17T07:59:14.757Z,3
2023-05-17T08:00:13.843Z,3
2023-05-17T08:01:15.783Z,3
2023-05-17T08:02:15.503Z,4
2023-05-17T08:03:19.250Z,4
2023-05-17T08:05:15.490Z,4
2023-05-17T08:06:15.813Z,4
2023-05-17T08:07:15.422Z,7
2023-05-17T08:08:15.619Z,7
2023-05-17T08:10:15.404Z,7
2023-05-17T08:11:15.878Z,7
2023-05-17T08:12:15.196Z,1
2023-05-17T08:13:16.315Z,1
2023-05-17T08:14:15.142Z,1
2023-05-17T08:15:15.169Z,1
2023-05-17T08:16:24.131Z,1
2023-05-17T08:17:16.071Z,1
2023-05-17T08:19:15.689Z,1
2023-05-17T08:21:15.189Z,1
2023-05-17T08:22:14.756Z,4
2023-05-17T08:23:15.128Z,4
2023-05-17T08:24:17.120Z,4
2023-05-17T08:25:15.642Z,4
2023-05-17T08:26:16.034Z,4
2023-05-17T08:27:15.186Z,1
2023-05-17T08:28:15.459Z,1
2023-05-17T08:29:14.243Z,1
2023-05-17T08:30:33.256Z,1
2023-05-17T08:32:14.133Z,4
2023-05-17T08:33:15.867Z,4
2023-05-17T08:35:15.104Z,4
2023-05-17T08:36:15.134Z,4
2023-05-17T08:37:15.126Z,4
2023-05-17T08:38:14.688Z,4
2023-05-17T08:39:15.385Z,4
2023-05-17T08:40:15.221Z,4
2023-05-17T08:41:14.699Z,4
2023-05-17T08:42:15.172Z,1
2023-05-17T08:43:15.386Z,1
2023-05-17T08:44:14.349Z,1
2023-05-17T08:45:14.835Z,1
2023-05-17T08:46:15.031Z,1
2023-05-17T08:47:15.314Z,3
2023-05-17T08:48:15.956Z,3
2023-05-17T08:50:15.132Z,3
2023-05-17T08:51:15.411Z,3
2023-05-17T08:52:15.632Z,5
2023-05-17T08:55:14.747Z,5
2023-05-17T08:56:15.234Z,5
2023-05-17T08:57:15.588Z,1
2023-05-17T08:58:14.751Z,1
2023-05-17T08:59:15.556Z,1
2023-05-17T09:00:15.705Z,1
2023-05-17T09:01:14.597Z,1
2023-05-17T09:02:15.835Z,0
2023-05-17T09:03:16.391Z,0
2023-05-17T09:04:15.328Z,0
2023-05-17T09:05:16.595Z,0
2023-05-17T09:06:15.758Z,0
2023-05-17T09:07:17.536Z,4
2023-05-17T09:08:15.345Z,4
2023-05-17T09:11:14.895Z,4
2023-05-17T09:12:15.326Z,3
2023-05-17T09:13:15.476Z,3
2023-05-17T09:14:14.857Z,3
2023-05-17T09:15:15.292Z,3
2023-05-17T09:16:15.081Z,3
2023-05-17T09:17:14.945Z,1
2023-05-17T09:18:19.478Z,1
2023-05-17T09:20:15.449Z,1
2023-05-17T09:24:19.026Z,5
2023-05-17T09:25:14.789Z,5
2023-05-17T09:26:14.876Z,5
2023-05-17T09:27:15.086Z,8
2023-05-17T09:28:15.409Z,8
2023-05-17T09:29:15.869Z,8
2023-05-17T09:30:14.716Z,8
2023-05-17T09:31:13.979Z,8
2023-05-17T09:32:14.828Z,5
2023-05-17T09:33:18.500Z,5
2023-05-17T09:34:14.276Z,5
2023-05-17T09:35:15.193Z,5
2023-05-17T09:37:14.742Z,1
2023-05-17T09:38:15.094Z,1
2023-05-17T09:39:16.000Z,1
2023-05-17T09:40:14.669Z,1
2023-05-17T09:41:14.636Z,1
2023-05-17T09:42:15.593Z,1
2023-05-17T09:43:15.595Z,1
2023-05-17T09:44:15.012Z,1
2023-05-17T09:45:15.323Z,1
2023-05-17T09:48:15.475Z,4
2023-05-17T09:49:15.771Z,4
2023-05-17T09:50:15.296Z,4
2023-05-17T09:51:15.339Z,4
2023-05-17T09:52:14.630Z,3
2023-05-17T09:53:15.183Z,3
2023-05-17T09:54:14.629Z,3
2023-05-17T09:55:15.503Z,3
2023-05-17T09:56:14.379Z,3
2023-05-17T09:57:14.656Z,5
2023-05-17T09:58:15.452Z,5
2023-05-17T09:59:15.567Z,5
2023-05-17T10:00:15.230Z,5
2023-05-17T10:01:15.671Z,5
2023-05-17T10:02:15.035Z,5
2023-05-17T10:03:15.422Z,5
2023-05-17T10:04:16.393Z,5
2023-05-17T10:05:15.385Z,5
2023-05-17T10:06:45.070Z,5
2023-05-17T10:09:15.068Z,1
2023-05-17T10:10:15.206Z,1
2023-05-17T10:11:15.694Z,1
2023-05-17T10:12:14.853Z,4
2023-05-17T10:13:15.023Z,4
2023-05-17T10:14:15.258Z,4
2023-05-17T10:15:15.808Z,4
2023-05-17T10:16:15.381Z,4
2023-05-17T10:17:15.250Z,8
2023-05-17T10:18:14.765Z,8
2023-05-17T10:19:16.078Z,8
2023-05-17T10:20:15.850Z,8
2023-05-17T10:26:14.734Z,4
2023-05-17T10:27:14.399Z,12
2023-05-17T10:28:15.124Z,12
2023-05-17T10:29:15.022Z,12
2023-05-17T10:31:14.660Z,12
2023-05-17T10:32:14.927Z,6
2023-05-17T10:33:16.510Z,6
2023-05-17T10:34:14.752Z,6
2023-05-17T10:36:15.221Z,6
2023-05-17T10:37:15.367Z,6
2023-05-17T10:38:15.594Z,6
2023-05-17T10:41:14.623Z,6
2023-05-17T10:42:25.202Z,3
2023-05-17T10:46:15.216Z,3
2023-05-17T10:47:14.539Z,4
2023-05-17T10:48:16.114Z,4
2023-05-17T10:49:15.815Z,4
2023-05-17T10:50:15.615Z,4
2023-05-17T10:51:15.201Z,4
2023-05-17T10:52:15.518Z,5
2023-05-17T10:53:15.179Z,5
2023-05-17T10:54:15.469Z,5
2023-05-17T10:56:14.935Z,5
2023-05-17T10:57:17.500Z,6
2023-05-17T10:58:14.887Z,6
2023-05-17T11:01:14.870Z,6
2023-05-17T11:02:15.364Z,11
2023-05-17T11:03:15.609Z,11
2023-05-17T11:04:14.954Z,11
2023-05-17T11:05:15.159Z,11
2023-05-17T11:06:30.155Z,11
2023-05-17T11:08:14.386Z,8
2023-05-17T11:09:15.142Z,8
2023-05-17T11:11:14.981Z,8
2023-05-17T11:12:14.809Z,7
2023-05-17T11:13:15.125Z,7
2023-05-17T11:14:14.949Z,7
2023-05-17T11:16:16.719Z,7
2023-05-17T11:17:15.201Z,7
2023-05-17T11:18:43.817Z,7
2023-05-17T11:19:15.424Z,7
2023-05-17T11:22:15.361Z,14
2023-05-17T11:23:15.491Z,14
2023-05-17T11:28:14.641Z,12
2023-05-17T11:29:13.692Z,12
2023-05-17T11:30:15.039Z,12
2023-05-17T11:31:14.581Z,12
2023-05-17T11:35:15.242Z,15
2023-05-17T11:36:15.617Z,15
2023-05-17T11:37:15.659Z,13
2023-05-17T11:38:14.774Z,13
2023-05-17T11:40:15.722Z,13
2023-05-17T11:44:15.074Z,11
2023-05-17T11:45:15.713Z,11
2023-05-17T11:46:14.514Z,11
2023-05-17T11:47:15.332Z,18
2023-05-17T11:48:15.960Z,18
2023-05-17T11:49:34.729Z,18
2023-05-17T11:50:15.103Z,18
2023-05-17T11:51:15.552Z,18
2023-05-17T11:54:14.902Z,11
2023-05-17T11:55:14.630Z,11
2023-05-17T11:56:15.228Z,11
2023-05-17T11:57:15.014Z,8
2023-05-17T11:58:14.263Z,8
2023-05-17T11:59:15.580Z,8
2023-05-17T12:00:15.018Z,8
2023-05-17T12:01:14.878Z,8
2023-05-17T12:02:15.202Z,12
2023-05-17T12:03:15.610Z,12
2023-05-17T12:07:14.965Z,7
2023-05-17T12:08:15.466Z,7
2023-05-17T12:09:15.664Z,7
2023-05-17T12:10:15.288Z,7
2023-05-17T12:11:14.667Z,7
2023-05-17T12:12:14.828Z,14
2023-05-17T12:13:15.146Z,14
2023-05-17T12:14:15.526Z,14
2023-05-17T12:18:15.118Z,11
2023-05-17T12:19:14.665Z,11
2023-05-17T12:20:15.658Z,11
2023-05-17T12:21:14.823Z,11
2023-05-17T12:24:15.841Z,7
2023-05-17T12:25:15.457Z,7
2023-05-17T12:26:15.007Z,7
2023-05-17T12:27:15.479Z,3
2023-05-17T12:29:16.488Z,3
2023-05-17T12:30:14.718Z,3
2023-05-17T12:31:15.081Z,3
2023-05-17T12:32:15.374Z,3
2023-05-17T12:33:16.217Z,3
2023-05-17T12:34:14.993Z,3
2023-05-17T12:36:15.454Z,3
2023-05-17T12:37:15.535Z,6
2023-05-17T12:40:15.551Z,6
2023-05-17T12:41:14.695Z,6
2023-05-17T12:42:15.258Z,7
2023-05-17T12:43:15.345Z,7
2023-05-17T12:44:25.884Z,7
2023-05-17T12:47:15.082Z,6
2023-05-17T12:48:15.181Z,6
2023-05-17T12:49:16.128Z,6
2023-05-17T12:50:15.104Z,6
2023-05-17T12:51:16.603Z,6
2023-05-17T12:52:14.768Z,9
2023-05-17T12:53:14.999Z,9
2023-05-17T12:54:14.576Z,9
2023-05-17T12:55:15.652Z,9
2023-05-17T12:56:14.855Z,9
2023-05-17T12:57:17.468Z,7
2023-05-17T12:58:14.904Z,7
2023-05-17T12:59:15.126Z,7
2023-05-17T13:02:14.997Z,3
2023-05-17T13:03:15.902Z,3
2023-05-17T13:04:16.392Z,3
2023-05-17T13:05:15.002Z,3
2023-05-17T13:06:15.122Z,3
2023-05-17T13:07:15.713Z,5
2023-05-17T13:08:14.601Z,5
2023-05-17T13:09:14.998Z,5
2023-05-17T13:10:15.486Z,5
2023-05-17T13:11:14.703Z,5
2023-05-17T13:12:15.067Z,3
2023-05-17T13:13:15.362Z,3
2023-05-17T13:14:14.709Z,3
2023-05-17T13:15:13.772Z,3
2023-05-17T13:16:15.697Z,3
2023-05-17T13:19:15.396Z,5
2023-05-17T13:20:19.950Z,5
2023-05-17T13:21:15.613Z,5
2023-05-17T13:22:15.217Z,7
2023-05-17T13:23:15.369Z,7
2023-05-17T13:24:15.541Z,7
2023-05-17T13:25:15.933Z,7
2023-05-17T13:26:15.384Z,7
2023-05-17T13:31:14.960Z,3
2023-05-17T13:32:15.081Z,1
2023-05-17T13:33:15.825Z,1
2023-05-17T13:34:15.832Z,1
2023-05-17T13:35:14.925Z,1
2023-05-17T13:36:15.140Z,1
2023-05-17T13:37:19.813Z,4
2023-05-17T13:38:14.083Z,4
2023-05-17T13:39:14.837Z,4
2023-05-17T13:40:15.809Z,4
2023-05-17T13:42:15.265Z,3
2023-05-17T13:43:16.387Z,3
2023-05-17T13:44:14.807Z,3
2023-05-17T13:45:14.746Z,3
2023-05-17T13:46:15.028Z,3
2023-05-17T13:47:15.293Z,1
2023-05-17T13:48:16.463Z,1
2023-05-17T13:49:15.145Z,1
2023-05-17T13:52:14.956Z,7
2023-05-17T13:53:14.767Z,7
2023-05-17T13:55:14.994Z,7
2023-05-17T13:56:16.526Z,7
2023-05-17T13:57:14.383Z,4
2023-05-17T13:58:14.928Z,4
2023-05-17T13:59:14.020Z,4
2023-05-17T14:00:15.043Z,4
2023-05-17T14:01:14.627Z,4
2023-05-17T14:02:13.447Z,3
2023-05-17T14:03:15.572Z,3
2023-05-17T14:04:15.191Z,3
2023-05-17T14:05:13.609Z,3
2023-05-17T14:07:15.684Z,4
2023-05-17T14:08:15.434Z,4
2023-05-17T14:09:14.650Z,4
2023-05-17T14:10:15.762Z,4
2023-05-17T14:11:15.323Z,4
2023-05-17T14:12:15.493Z,1
2023-05-17T14:13:14.436Z,1
2023-05-17T14:14:15.385Z,1
2023-05-17T14:15:15.432Z,1
2023-05-17T14:20:15.631Z,9
2023-05-17T14:21:15.223Z,9
2023-05-17T14:22:15.567Z,4
2023-05-17T14:25:14.350Z,4
2023-05-17T14:26:15.244Z,4
2023-05-17T14:27:15.125Z,6
2023-05-17T14:28:14.223Z,6
2023-05-17T14:29:14.336Z,6
2023-05-17T14:30:17.868Z,6
2023-05-17T14:32:14.975Z,7
2023-05-17T14:33:15.867Z,7
2023-05-17T14:35:14.928Z,7
2023-05-17T14:36:16.865Z,7
2023-05-17T14:39:14.751Z,3
2023-05-17T14:40:17.759Z,3
2023-05-17T14:41:14.870Z,3
2023-05-17T14:42:14.928Z,8
2023-05-17T14:43:14.865Z,8
2023-05-17T14:44:15.431Z,8
2023-05-17T14:45:14.803Z,8
2023-05-17T14:46:15.144Z,8
2023-05-17T14:50:15.001Z,4
2023-05-17T14:51:15.174Z,4
2023-05-17T14:52:15.345Z,3
2023-05-17T14:53:14.660Z,3
2023-05-17T14:54:17.790Z,3
2023-05-17T14:57:14.756Z,5
2023-05-17T14:58:15.042Z,5
2023-05-17T14:59:14.693Z,5
2023-05-17T15:00:15.096Z,5
2023-05-17T15:02:15.763Z,9
2023-05-17T15:03:16.481Z,9
2023-05-17T15:04:16.448Z,9
2023-05-17T15:05:15.335Z,9
2023-05-17T15:06:22.328Z,9
2023-05-17T15:10:14.970Z,4
2023-05-17T15:11:15.211Z,4
2023-05-17T15:12:18.018Z,8
2023-05-17T15:16:15.479Z,8
2023-05-17T15:17:15.524Z,7
2023-05-17T15:18:15.168Z,7
2023-05-17T15:19:15.900Z,7
2023-05-17T15:20:15.338Z,7
2023-05-17T15:21:14.929Z,7
2023-05-17T15:22:14.934Z,7
2023-05-17T15:23:15.012Z,7
2023-05-17T15:24:19.920Z,7
2023-05-17T15:26:14.781Z,7
2023-05-17T15:27:14.889Z,12
2023-05-17T15:28:14.334Z,12
2023-05-17T15:29:14.864Z,12
2023-05-17T15:30:17.929Z,12
2023-05-17T15:32:14.553Z,8
2023-05-17T15:33:16.034Z,8
2023-05-17T15:34:15.712Z,8
2023-05-17T15:35:14.525Z,8
2023-05-17T15:36:16.725Z,8
2023-05-17T15:38:14.721Z,8
2023-05-17T15:39:14.872Z,8
2023-05-17T15:40:15.387Z,8
2023-05-17T15:41:14.511Z,8
2023-05-17T15:42:14.389Z,7
2023-05-17T15:43:14.794Z,7
2023-05-17T15:44:14.990Z,7
2023-05-17T15:45:14.430Z,7
2023-05-17T15:46:14.629Z,7
2023-05-17T15:47:14.780Z,9
2023-05-17T15:48:15.188Z,9
2023-05-17T15:49:15.750Z,9
2023-05-17T15:50:14.524Z,9
2023-05-17T15:51:14.570Z,9
2023-05-17T15:52:14.772Z,7
2023-05-17T15:53:15.418Z,7
2023-05-17T15:54:14.581Z,7
2023-05-17T15:55:14.559Z,7
2023-05-17T15:56:15.041Z,7
2023-05-17T15:57:14.292Z,7
2023-05-17T15:58:14.606Z,7
2023-05-17T15:59:14.760Z,7
2023-05-17T16:00:14.883Z,7
2023-05-17T16:01:14.467Z,7
2023-05-17T16:02:14.597Z,5
2023-05-17T16:03:14.558Z,5
2023-05-17T16:04:14.771Z,5
2023-05-17T16:05:15.011Z,5
2023-05-17T16:06:15.093Z,5
2023-05-17T16:07:14.435Z,5
2023-05-17T16:08:14.477Z,5
2023-05-17T16:09:14.899Z,5
2023-05-17T16:10:14.856Z,5
2023-05-17T16:11:14.566Z,5
2023-05-17T16:12:14.777Z,5
2023-05-17T16:13:14.750Z,5
2023-05-17T16:14:14.265Z,5
2023-05-17T16:15:14.845Z,5
2023-05-17T16:16:15.277Z,5
2023-05-17T16:17:14.249Z,5
2023-05-17T16:18:15.670Z,5
2023-05-17T16:19:15.707Z,5
2023-05-17T16:20:14.761Z,5
2023-05-17T16:21:14.162Z,5
2023-05-17T16:22:14.585Z,8
2023-05-17T16:23:13.373Z,8
2023-05-17T16:24:14.656Z,8
2023-05-17T16:25:14.444Z,8
2023-05-17T16:26:14.694Z,8
2023-05-17T16:27:16.793Z,1
2023-05-17T16:28:14.450Z,1
2023-05-17T16:29:13.590Z,1
2023-05-17T16:30:14.167Z,1
2023-05-17T16:31:14.767Z,1
2023-05-17T16:32:15.261Z,3
2023-05-17T16:33:17.454Z,3
2023-05-17T16:34:14.753Z,3
2023-05-17T16:35:15.288Z,3
2023-05-17T16:36:15.081Z,3
2023-05-17T16:37:14.386Z,8
2023-05-17T16:38:14.638Z,8
2023-05-17T16:39:15.833Z,8
2023-05-17T16:40:14.412Z,8
2023-05-17T16:41:14.562Z,8
2023-05-17T16:42:14.992Z,9
2023-05-17T16:43:14.282Z,9
2023-05-17T16:44:14.220Z,9
2023-05-17T16:45:16.418Z,9
2023-05-17T16:46:14.373Z,9
2023-05-17T16:47:15.685Z,11
2023-05-17T16:48:15.244Z,11
2023-05-17T16:49:14.140Z,11
2023-05-17T16:50:15.081Z,11
2023-05-17T16:51:14.887Z,11
2023-05-17T16:52:14.924Z,4
2023-05-17T16:53:14.789Z,4
2023-05-17T16:54:14.756Z,4
2023-05-17T16:55:15.018Z,4
2023-05-17T16:56:14.700Z,4
2023-05-17T16:57:16.859Z,9
2023-05-17T16:58:15.134Z,9
2023-05-17T16:59:14.761Z,9
2023-05-17T17:00:14.411Z,9
2023-05-17T17:01:14.819Z,9
2023-05-17T17:02:15.497Z,1
2023-05-17T17:03:18.311Z,1
2023-05-17T17:04:14.977Z,1
2023-05-17T17:05:15.244Z,1
2023-05-17T17:06:14.823Z,1
2023-05-17T17:07:13.642Z,7
2023-05-17T17:08:14.821Z,7
2023-05-17T17:09:16.709Z,7
2023-05-17T17:10:13.889Z,7
2023-05-17T17:11:14.525Z,7
2023-05-17T17:12:32.518Z,5
2023-05-17T17:14:14.586Z,5
2023-05-17T17:15:16.475Z,5
2023-05-17T17:16:14.488Z,5
2023-05-17T17:17:14.302Z,8
2023-05-17T17:18:14.800Z,8
2023-05-17T17:19:14.850Z,8
2023-05-17T17:20:14.471Z,8
2023-05-17T17:21:16.543Z,8
2023-05-17T17:22:15.272Z,5
2023-05-17T17:23:14.470Z,5
2023-05-17T17:24:15.501Z,5
2023-05-17T17:25:15.366Z,5
2023-05-17T17:26:14.750Z,5
2023-05-17T17:27:15.083Z,3
2023-05-17T17:28:14.502Z,3
2023-05-17T17:29:14.420Z,3
2023-05-17T17:30:15.255Z,3
2023-05-17T17:31:14.412Z,3
2023-05-17T17:32:15.075Z,5
2023-05-17T17:33:14.633Z,5
2023-05-17T17:34:15.191Z,5
2023-05-17T17:35:14.530Z,5
2023-05-17T17:36:14.412Z,5
2023-05-17T17:37:15.187Z,3
2023-05-17T17:38:14.974Z,3
2023-05-17T17:39:14.817Z,3
2023-05-17T17:40:15.279Z,3
2023-05-17T17:41:14.502Z,3
2023-05-17T17:42:14.946Z,5
2023-05-17T17:43:14.815Z,5
2023-05-17T17:44:14.992Z,5
2023-05-17T17:45:15.036Z,5
2023-05-17T17:46:14.931Z,5
2023-05-17T17:47:15.295Z,3
2023-05-17T17:48:15.722Z,3
2023-05-17T17:49:14.838Z,3
2023-05-17T17:50:14.935Z,3
2023-05-17T17:51:15.341Z,3
2023-05-17T17:52:14.699Z,6
2023-05-17T17:53:14.856Z,6